sensor_id;sensor_type;location;lat;lon;timestamp;P1;durP1;ratioP1;P2;durP2;ratioP2
46633;SDS011;32362;49.986;8.026;2023-08-06T00:14:32;3.93;;;2.03;;
46633;SDS011;32362;49.986;8.026;2023-08-06T00:41:13;2.72;;;1.55;;
46633;SDS011;32362;49.986;8.026;2023-08-06T01:34:48;2.53;;;1.63;;
46633;SDS011;32362;49.986;8.026;2023-08-06T02:01:31;2.05;;;1.60;;
46633;SDS011;32362;49.986;8.026;2023-08-06T02:28:12;5.72;;;1.80;;
46633;SDS011;32362;49.986;8.026;2023-08-06T02:54:54;3.67;;;1.67;;
46633;SDS011;32362;49.986;8.026;2023-08-06T03:21:34;3.30;;;1.80;;
46633;SDS011;32362;49.986;8.026;2023-08-06T03:48:16;5.25;;;1.95;;
46633;SDS011;32362;49.986;8.026;2023-08-06T04:14:59;6.07;;;2.13;;
46633;SDS011;32362;49.986;8.026;2023-08-06T04:41:40;2.80;;;1.00;;
46633;SDS011;32362;49.986;8.026;2023-08-06T05:08:21;2.78;;;0.50;;
46633;SDS011;32362;49.986;8.026;2023-08-06T05:35:02;0.80;;;0.60;;
46633;SDS011;32362;49.986;8.026;2023-08-06T06:01:43;4.22;;;0.50;;
46633;SDS011;32362;49.986;8.026;2023-08-06T06:28:23;0.43;;;0.30;;
46633;SDS011;32362;49.986;8.026;2023-08-06T06:55:04;1.33;;;0.67;;
46633;SDS011;32362;49.986;8.026;2023-08-06T07:21:45;2.92;;;0.65;;
46633;SDS011;32362;49.986;8.026;2023-08-06T07:48:26;0.30;;;0.30;;
46633;SDS011;32362;49.986;8.026;2023-08-06T08:15:07;2.55;;;0.47;;
46633;SDS011;32362;49.986;8.026;2023-08-06T08:41:48;2.05;;;0.57;;
46633;SDS011;32362;49.986;8.026;2023-08-06T09:08:31;0.50;;;0.23;;
46633;SDS011;32362;49.986;8.026;2023-08-06T09:35:18;0.20;;;0.20;;
46633;SDS011;32362;49.986;8.026;2023-08-06T10:01:59;0.20;;;0.20;;
46633;SDS011;32362;49.986;8.026;2023-08-06T10:28:40;0.10;;;0.10;;
46633;SDS011;32362;49.986;8.026;2023-08-06T10:55:28;0.03;;;0.03;;
46633;SDS011;32362;49.986;8.026;2023-08-06T11:22:09;0.30;;;0.20;;
46633;SDS011;32362;49.986;8.026;2023-08-06T11:48:53;0.85;;;0.30;;
46633;SDS011;32362;49.986;8.026;2023-08-06T12:15:38;4.75;;;0.32;;
46633;SDS011;32362;49.986;8.026;2023-08-06T12:42:18;0.60;;;0.40;;
46633;SDS011;32362;49.986;8.026;2023-08-06T13:08:59;0.43;;;0.10;;
46633;SDS011;32362;49.986;8.026;2023-08-06T13:35:40;1.43;;;0.47;;
46633;SDS011;32362;49.986;8.026;2023-08-06T14:02:20;2.40;;;0.30;;
46633;SDS011;32362;49.986;8.026;2023-08-06T14:29:02;0.43;;;0.17;;
46633;SDS011;32362;49.986;8.026;2023-08-06T14:55:43;0.20;;;0.10;;
46633;SDS011;32362;49.986;8.026;2023-08-06T15:22:25;0.45;;;0.20;;
46633;SDS011;32362;49.986;8.026;2023-08-06T15:49:06;0.20;;;0.17;;
46633;SDS011;32362;49.986;8.026;2023-08-06T16:15:46;0.60;;;0.20;;
46633;SDS011;32362;49.986;8.026;2023-08-06T16:42:27;0.20;;;0.20;;
46633;SDS011;32362;49.986;8.026;2023-08-06T17:09:08;0.22;;;0.10;;
46633;SDS011;32362;49.986;8.026;2023-08-06T17:35:48;0.40;;;0.10;;
46633;SDS011;32362;49.986;8.026;2023-08-06T18:02:29;0.20;;;0.20;;
46633;SDS011;32362;49.986;8.026;2023-08-06T18:29:10;0.32;;;0.20;;
46633;SDS011;32362;49.986;8.026;2023-08-06T18:55:51;0.00;;;0.00;;
46633;SDS011;32362;49.986;8.026;2023-08-06T19:22:32;0.03;;;0.00;;
46633;SDS011;32362;49.986;8.026;2023-08-06T19:49:12;0.30;;;0.10;;
46633;SDS011;32362;49.986;8.026;2023-08-06T20:15:53;0.00;;;0.00;;
46633;SDS011;32362;49.986;8.026;2023-08-06T20:42:34;0.30;;;0.10;;
46633;SDS011;32362;49.986;8.026;2023-08-06T21:09:16;0.73;;;0.20;;
46633;SDS011;32362;49.986;8.026;2023-08-06T21:35:58;0.40;;;0.30;;
46633;SDS011;32362;49.986;8.026;2023-08-06T22:02:42;2.10;;;0.45;;
46633;SDS011;32362;49.986;8.026;2023-08-06T22:29:23;1.85;;;0.57;;
46633;SDS011;32362;49.986;8.026;2023-08-06T22:56:05;3.63;;;0.30;;
46633;SDS011;32362;49.986;8.026;2023-08-06T23:22:46;2.38;;;0.80;;
46633;SDS011;32362;49.986;8.026;2023-08-06T23:49:27;1.80;;;0.57;;
